createdAt,value
2023-03-08T00:00:15.532Z,0.95
2023-03-08T00:02:41.919Z,1.35
2023-03-08T00:05:09.145Z,1.55
2023-03-08T00:07:35.586Z,1.61
2023-03-08T00:10:01.979Z,1.72
2023-03-08T00:12:28.941Z,1.61
2023-03-08T00:14:55.345Z,1.51
2023-03-08T00:17:22.097Z,1.59
2023-03-08T00:19:51.197Z,1.48
2023-03-08T00:22:17.577Z,1.42
2023-03-08T00:24:43.973Z,1.37
2023-03-08T00:27:10.360Z,1.22
2023-03-08T00:29:36.747Z,1.15
2023-03-08T00:32:03.287Z,0.75
2023-03-08T00:34:29.724Z,0.78
2023-03-08T00:36:56.131Z,0.93
2023-03-08T00:39:22.498Z,0.99
2023-03-08T00:41:48.998Z,1.01
2023-03-08T00:44:15.380Z,0.96
2023-03-08T00:46:41.840Z,0.94
2023-03-08T00:49:09.261Z,0.96
2023-03-08T00:51:35.653Z,0.99
2023-03-08T00:54:02.040Z,1.01
2023-03-08T00:56:28.423Z,1.08
2023-03-08T00:58:54.811Z,1.05
2023-03-08T01:01:21.261Z,1.14
2023-03-08T01:03:47.710Z,1.20
2023-03-08T01:06:15.112Z,1.15
2023-03-08T01:08:42.097Z,0.99
2023-03-08T01:11:19.109Z,0.91
2023-03-08T01:13:45.596Z,0.81
2023-03-08T01:16:20.452Z,1.02
2023-03-08T01:18:46.995Z,0.89
2023-03-08T01:21:13.528Z,0.96
2023-03-08T01:23:42.219Z,0.98
2023-03-08T01:26:12.670Z,0.97
2023-03-08T01:28:39.323Z,0.84
2023-03-08T01:31:08.675Z,0.80
2023-03-08T01:33:35.303Z,0.73
2023-03-08T01:36:08.882Z,0.71
2023-03-08T01:38:35.898Z,0.59
2023-03-08T01:41:03.767Z,0.59
2023-03-08T01:43:37.918Z,0.63
2023-03-08T01:46:05.965Z,0.60
2023-03-08T01:48:36.910Z,0.56
2023-03-08T01:51:05.020Z,0.59
2023-03-08T01:53:32.503Z,0.77
2023-03-08T01:55:58.946Z,0.72
2023-03-08T01:58:26.062Z,0.69
2023-03-08T02:00:52.479Z,0.87
2023-03-08T02:03:18.852Z,0.91
2023-03-08T02:05:45.283Z,0.95
2023-03-08T02:08:11.681Z,0.84
2023-03-08T02:10:38.272Z,0.93
2023-03-08T02:13:06.390Z,1.00
2023-03-08T02:15:32.876Z,1.10
2023-03-08T02:17:59.291Z,1.10
2023-03-08T02:20:32.620Z,1.04
2023-03-08T02:23:16.934Z,0.85
2023-03-08T02:25:51.005Z,0.77
2023-03-08T02:28:17.933Z,0.67
2023-03-08T02:30:44.363Z,0.91
2023-03-08T02:33:10.818Z,0.92
2023-03-08T02:35:38.675Z,0.92
2023-03-08T02:38:05.118Z,1.11
2023-03-08T02:40:31.629Z,0.96
2023-03-08T02:42:58.067Z,1.06
2023-03-08T02:45:24.490Z,1.07
2023-03-08T02:47:51.227Z,1.03
2023-03-08T02:50:17.753Z,0.95
2023-03-08T02:52:44.195Z,0.87
2023-03-08T02:55:10.700Z,0.92
2023-03-08T02:57:37.072Z,0.87
2023-03-08T03:00:04.497Z,0.88
2023-03-08T03:02:33.250Z,0.85
2023-03-08T03:04:59.687Z,0.95
2023-03-08T03:07:26.097Z,0.89
2023-03-08T03:09:52.571Z,0.88
2023-03-08T03:12:18.945Z,0.90
2023-03-08T03:14:45.337Z,0.96
2023-03-08T03:17:11.737Z,1.13
2023-03-08T03:19:38.458Z,1.19
2023-03-08T03:22:04.844Z,1.21
2023-03-08T03:24:31.244Z,1.27
2023-03-08T03:26:57.670Z,1.18
2023-03-08T03:29:24.139Z,1.29
2023-03-08T03:31:50.508Z,1.35
2023-03-08T03:34:16.909Z,1.37
2023-03-08T03:36:43.282Z,1.15
2023-03-08T03:39:09.667Z,1.14
2023-03-08T03:41:36.045Z,1.25
2023-03-08T03:44:02.569Z,1.32
2023-03-08T03:46:29.121Z,1.27
2023-03-08T03:48:55.539Z,1.31
2023-03-08T03:51:23.001Z,1.21
2023-03-08T03:53:49.777Z,1.34
2023-03-08T03:56:24.283Z,1.27
2023-03-08T03:58:51.627Z,1.35
2023-03-08T04:01:27.351Z,1.30
2023-03-08T04:03:55.004Z,1.34
2023-03-08T04:06:27.334Z,1.28
2023-03-08T04:09:00.550Z,1.20
2023-03-08T04:11:29.265Z,1.21
2023-03-08T04:13:55.875Z,1.22
2023-03-08T04:16:24.435Z,1.26
2023-03-08T04:18:55.952Z,1.26
2023-03-08T04:21:23.299Z,1.20
2023-03-08T04:23:49.787Z,1.31
2023-03-08T04:26:16.201Z,1.28
2023-03-08T04:28:42.945Z,1.30
2023-03-08T04:31:12.160Z,1.33
2023-03-08T04:33:38.667Z,1.33
2023-03-08T04:36:05.298Z,1.54
2023-03-08T04:38:33.336Z,1.59
2023-03-08T04:41:05.175Z,1.59
2023-03-08T04:43:34.634Z,1.58
2023-03-08T04:46:01.572Z,1.49
2023-03-08T04:48:28.339Z,1.52
2023-03-08T04:50:56.085Z,1.52
2023-03-08T04:53:23.750Z,1.51
2023-03-08T04:55:50.501Z,1.42
2023-03-08T04:58:17.227Z,1.40
2023-03-08T05:00:43.633Z,1.43
2023-03-08T05:03:10.163Z,1.47
2023-03-08T05:05:36.558Z,1.46
2023-03-08T05:08:05.904Z,1.45
2023-03-08T05:10:32.400Z,1.43
2023-03-08T05:12:58.818Z,1.51
2023-03-08T05:15:25.223Z,1.48
2023-03-08T05:17:51.623Z,1.33
2023-03-08T05:20:18.310Z,1.38
2023-03-08T05:22:57.939Z,1.28
2023-03-08T05:25:25.172Z,1.40
2023-03-08T05:27:51.567Z,1.38
2023-03-08T05:30:18.288Z,1.46
2023-03-08T05:32:44.701Z,1.26
2023-03-08T05:35:11.107Z,1.49
2023-03-08T05:37:37.500Z,1.50
2023-03-08T05:40:06.369Z,1.50
2023-03-08T05:42:33.339Z,1.33
2023-03-08T05:44:59.732Z,1.34
2023-03-08T05:47:26.165Z,1.41
2023-03-08T05:49:52.541Z,1.41
2023-03-08T05:52:18.911Z,1.39
2023-03-08T05:54:45.274Z,1.33
2023-03-08T05:57:11.646Z,1.13
2023-03-08T05:59:38.072Z,1.42
2023-03-08T06:02:04.552Z,1.43
2023-03-08T06:04:31.021Z,1.31
2023-03-08T06:06:57.411Z,1.46
2023-03-08T06:09:23.828Z,1.40
2023-03-08T06:11:50.214Z,1.31
2023-03-08T06:14:16.582Z,1.39
2023-03-08T06:16:43.336Z,1.42
2023-03-08T06:19:09.743Z,1.37
2023-03-08T06:21:36.140Z,1.37
2023-03-08T06:24:02.502Z,1.39
2023-03-08T06:26:28.952Z,1.48
2023-03-08T06:28:55.320Z,1.39
2023-03-08T06:31:21.712Z,1.40
2023-03-08T06:33:48.159Z,1.30
2023-03-08T06:36:19.702Z,1.43
2023-03-08T06:38:47.002Z,1.41
2023-03-08T06:41:15.028Z,1.46
2023-03-08T06:43:41.819Z,1.43
2023-03-08T06:46:11.386Z,1.45
2023-03-08T06:48:38.178Z,1.47
2023-03-08T06:51:05.404Z,1.41
2023-03-08T06:53:32.746Z,1.41
2023-03-08T06:56:02.827Z,1.34
2023-03-08T06:58:29.320Z,1.13
2023-03-08T07:00:55.757Z,1.28
2023-03-08T07:03:22.932Z,1.35
2023-03-08T07:05:49.326Z,1.19
2023-03-08T07:08:15.718Z,1.15
2023-03-08T07:10:42.099Z,1.28
2023-03-08T07:13:08.501Z,1.20
2023-03-08T07:15:34.944Z,1.20
2023-03-08T07:18:01.371Z,1.23
2023-03-08T07:20:27.900Z,1.08
2023-03-08T07:22:54.597Z,1.15
2023-03-08T07:25:21.621Z,0.75
2023-03-08T07:27:48.294Z,0.78
2023-03-08T07:30:16.346Z,0.88
2023-03-08T07:32:42.929Z,0.88
2023-03-08T07:35:11.455Z,0.95
2023-03-08T07:37:38.110Z,0.95
2023-03-08T07:40:05.772Z,1.11
2023-03-08T07:42:32.199Z,1.09
2023-03-08T07:44:58.667Z,0.97
2023-03-08T07:47:25.040Z,0.80
2023-03-08T07:49:51.484Z,0.94
2023-03-08T07:52:17.862Z,1.00
2023-03-08T07:54:44.323Z,0.99
2023-03-08T07:57:14.411Z,1.13
2023-03-08T07:59:41.782Z,1.04
2023-03-08T08:02:13.035Z,1.07
2023-03-08T08:04:40.227Z,0.93
2023-03-08T08:07:07.154Z,1.02
2023-03-08T08:09:33.962Z,0.97
2023-03-08T08:12:00.331Z,0.79
2023-03-08T08:14:26.715Z,0.88
2023-03-08T08:16:53.076Z,0.75
2023-03-08T08:19:19.472Z,1.09
2023-03-08T08:21:46.398Z,0.81
2023-03-08T08:24:12.882Z,0.97
2023-03-08T08:26:39.274Z,0.95
2023-03-08T08:29:05.679Z,0.81
2023-03-08T08:31:32.045Z,0.84
2023-03-08T08:33:59.197Z,0.74
2023-03-08T08:36:26.320Z,0.90
2023-03-08T08:38:52.780Z,0.91
2023-03-08T08:41:20.837Z,0.72
2023-03-08T08:43:47.890Z,0.81
2023-03-08T08:46:15.958Z,0.87
2023-03-08T08:48:42.748Z,0.94
2023-03-08T08:51:12.306Z,0.75
2023-03-08T08:53:38.874Z,0.75
2023-03-08T08:56:23.814Z,0.72
2023-03-08T08:58:52.434Z,1.00
2023-03-08T09:01:21.561Z,0.92
2023-03-08T09:03:48.464Z,0.83
2023-03-08T09:06:16.031Z,0.72
2023-03-08T09:08:42.875Z,0.76
2023-03-08T09:11:10.608Z,0.71
2023-03-08T09:13:42.248Z,0.60
2023-03-08T09:16:22.824Z,0.58
2023-03-08T09:18:49.409Z,0.60
2023-03-08T09:21:16.265Z,0.73
2023-03-08T09:23:43.142Z,0.74
2023-03-08T09:26:09.758Z,1.01
2023-03-08T09:28:36.342Z,0.90
2023-03-08T09:31:11.951Z,1.05
2023-03-08T09:33:42.789Z,1.08
2023-03-08T09:36:09.719Z,0.84
2023-03-08T09:38:36.161Z,0.87
2023-03-08T09:41:10.905Z,0.75
2023-03-08T09:44:01.511Z,0.74
2023-03-08T09:46:34.455Z,1.08
2023-03-08T09:49:01.942Z,1.33
2023-03-08T09:51:34.222Z,1.13
2023-03-08T09:54:02.993Z,0.80
2023-03-08T09:56:39.910Z,0.76
2023-03-08T09:59:12.491Z,0.95
2023-03-08T10:01:43.091Z,1.00
2023-03-08T10:04:14.771Z,0.84
2023-03-08T10:06:55.148Z,0.96
2023-03-08T10:09:31.055Z,0.76
2023-03-08T10:12:05.695Z,0.86
2023-03-08T10:14:43.600Z,0.97
2023-03-08T10:17:14.457Z,1.11
2023-03-08T10:19:46.489Z,1.12
2023-03-08T10:22:25.044Z,1.00
2023-03-08T10:25:31.391Z,1.24
2023-03-08T10:28:00.174Z,1.31
2023-03-08T10:30:35.203Z,1.20
2023-03-08T10:33:06.695Z,1.51
2023-03-08T10:35:39.302Z,1.73
2023-03-08T10:38:15.524Z,1.74
2023-03-08T10:40:41.982Z,1.71
2023-03-08T10:43:16.991Z,1.48
2023-03-08T10:45:43.358Z,1.69
2023-03-08T10:48:20.732Z,1.27
2023-03-08T10:51:01.779Z,1.42
2023-03-08T10:53:29.869Z,1.23
2023-03-08T10:55:58.696Z,1.30
2023-03-08T10:58:37.555Z,1.33
2023-03-08T11:01:34.227Z,1.11
2023-03-08T11:04:06.465Z,0.97
2023-03-08T11:06:35.015Z,1.33
2023-03-08T11:09:03.531Z,1.14
2023-03-08T11:11:41.052Z,1.22
2023-03-08T11:14:09.863Z,0.97
2023-03-08T11:16:59.381Z,0.96
2023-03-08T11:19:53.782Z,1.09
2023-03-08T11:22:49.347Z,0.76
2023-03-08T11:25:33.941Z,1.01
2023-03-08T11:28:29.266Z,1.25
2023-03-08T11:31:13.165Z,1.34
2023-03-08T11:34:05.119Z,1.47
2023-03-08T11:36:49.614Z,1.40
2023-03-08T11:39:36.235Z,1.47
2023-03-08T11:42:14.217Z,1.67
2023-03-08T11:44:52.291Z,1.65
2023-03-08T11:48:12.780Z,1.47
2023-03-08T11:50:43.313Z,1.45
2023-03-08T11:53:12.676Z,1.43
2023-03-08T11:55:38.974Z,1.69
2023-03-08T11:58:22.233Z,1.58
2023-03-08T12:00:50.142Z,1.74
2023-03-08T12:03:19.408Z,1.49
2023-03-08T12:05:57.680Z,1.61
2023-03-08T12:08:30.390Z,1.41
2023-03-08T12:11:08.639Z,1.41
2023-03-08T12:13:38.008Z,1.32
2023-03-08T12:16:23.040Z,1.08
2023-03-08T12:19:27.088Z,1.23
2023-03-08T12:22:39.205Z,1.32
2023-03-08T12:25:12.898Z,1.27
2023-03-08T12:27:52.184Z,1.15
2023-03-08T12:30:41.825Z,1.38
2023-03-08T12:33:12.124Z,1.41
2023-03-08T12:36:10.323Z,1.39
2023-03-08T12:38:44.646Z,1.52
2023-03-08T12:41:27.512Z,1.40
2023-03-08T12:44:02.943Z,1.48
2023-03-08T12:46:56.350Z,1.60
2023-03-08T12:49:35.611Z,1.63
2023-03-08T12:52:06.426Z,1.41
2023-03-08T12:54:34.750Z,1.47
2023-03-08T12:57:04.126Z,1.49
2023-03-08T12:59:38.600Z,1.55
2023-03-08T13:02:23.830Z,1.63
2023-03-08T13:05:05.245Z,1.65
2023-03-08T13:07:40.117Z,1.46
2023-03-08T13:10:19.560Z,1.60
2023-03-08T13:13:09.192Z,1.71
2023-03-08T13:15:36.858Z,1.51
2023-03-08T13:18:09.401Z,1.48
2023-03-08T13:20:54.335Z,1.63
2023-03-08T13:23:32.725Z,1.54
2023-03-08T13:26:26.495Z,1.48
2023-03-08T13:28:53.462Z,1.48
2023-03-08T13:31:22.279Z,1.45
2023-03-08T13:33:51.104Z,1.64
2023-03-08T13:36:22.247Z,1.80
2023-03-08T13:39:07.081Z,1.69
2023-03-08T13:41:43.608Z,1.55
2023-03-08T13:44:23.144Z,1.60
2023-03-08T13:46:51.966Z,1.68
2023-03-08T13:49:36.086Z,1.90
2023-03-08T13:52:05.233Z,2.05
2023-03-08T13:54:34.912Z,1.68
2023-03-08T13:57:03.831Z,1.71
2023-03-08T13:59:31.116Z,1.63
2023-03-08T14:01:58.006Z,1.90
2023-03-08T14:04:30.081Z,1.60
2023-03-08T14:06:58.759Z,1.78
2023-03-08T14:09:25.882Z,1.91
2023-03-08T14:12:02.659Z,1.86
2023-03-08T14:14:32.787Z,1.74
2023-03-08T14:16:59.556Z,1.71
2023-03-08T14:19:31.663Z,1.62
2023-03-08T14:22:00.295Z,1.80
2023-03-08T14:24:29.213Z,2.12
2023-03-08T14:27:00.295Z,1.82
2023-03-08T14:29:28.886Z,1.72
2023-03-08T14:32:10.703Z,1.83
2023-03-08T14:34:40.680Z,1.99
2023-03-08T14:37:24.761Z,1.77
2023-03-08T14:39:53.335Z,1.88
2023-03-08T14:42:27.554Z,1.85
2023-03-08T14:44:59.270Z,1.97
2023-03-08T14:47:31.144Z,2.11
2023-03-08T14:50:01.916Z,2.29
2023-03-08T14:52:29.650Z,1.89
2023-03-08T14:54:56.117Z,2.14
2023-03-08T14:57:28.397Z,1.99
2023-03-08T14:59:56.733Z,1.95
2023-03-08T15:02:23.211Z,2.01
2023-03-08T15:04:49.587Z,1.89
2023-03-08T15:07:24.864Z,1.88
2023-03-08T15:09:51.818Z,1.84
2023-03-08T15:12:18.440Z,1.94
2023-03-08T15:14:45.181Z,1.90
2023-03-08T15:17:11.618Z,2.01
2023-03-08T15:19:38.028Z,2.00
2023-03-08T15:22:05.617Z,2.02
2023-03-08T15:24:31.989Z,1.92
2023-03-08T15:26:58.390Z,1.97
2023-03-08T15:29:30.223Z,1.72
2023-03-08T15:31:57.581Z,1.85
2023-03-08T15:34:27.500Z,1.81
2023-03-08T15:36:54.622Z,1.71
2023-03-08T15:39:21.016Z,1.79
2023-03-08T15:41:47.572Z,1.86
2023-03-08T15:44:13.938Z,1.77
2023-03-08T15:46:40.362Z,1.86
2023-03-08T15:49:06.838Z,1.86
2023-03-08T15:51:35.853Z,1.99
2023-03-08T15:54:03.332Z,1.78
2023-03-08T15:56:29.726Z,1.91
2023-03-08T15:58:56.604Z,1.75
2023-03-08T16:01:24.713Z,1.60
2023-03-08T16:03:55.567Z,1.65
2023-03-08T16:06:22.589Z,1.67
2023-03-08T16:08:49.065Z,1.69
2023-03-08T16:11:17.533Z,1.68
2023-03-08T16:13:43.947Z,1.66
2023-03-08T16:16:10.405Z,1.68
2023-03-08T16:18:36.966Z,1.84
2023-03-08T16:21:08.762Z,1.79
2023-03-08T16:23:36.024Z,1.84
2023-03-08T16:26:15.839Z,1.82
2023-03-08T16:28:45.000Z,1.85
2023-03-08T16:31:11.616Z,1.81
2023-03-08T16:33:38.059Z,1.54
2023-03-08T16:36:04.527Z,1.67
2023-03-08T16:38:31.166Z,1.54
2023-03-08T16:41:11.493Z,1.31
2023-03-08T16:43:46.279Z,1.34
2023-03-08T16:46:19.427Z,1.57
2023-03-08T16:48:49.488Z,1.56
2023-03-08T16:51:18.074Z,1.62
2023-03-08T16:53:44.453Z,1.56
2023-03-08T16:56:17.783Z,1.65
2023-03-08T16:58:44.176Z,1.57
2023-03-08T17:01:17.934Z,1.55
2023-03-08T17:03:44.375Z,1.65
2023-03-08T17:06:13.274Z,1.57
2023-03-08T17:08:39.653Z,1.62
2023-03-08T17:11:07.057Z,1.67
2023-03-08T17:13:33.524Z,1.71
2023-03-08T17:15:59.974Z,1.78
2023-03-08T17:18:26.485Z,1.72
2023-03-08T17:20:53.257Z,1.68
2023-03-08T17:23:20.125Z,1.54
2023-03-08T17:25:46.546Z,1.70
2023-03-08T17:28:12.915Z,1.41
2023-03-08T17:30:41.195Z,1.48
2023-03-08T17:33:09.024Z,1.49
2023-03-08T17:35:39.631Z,1.64
2023-03-08T17:38:06.373Z,1.53
2023-03-08T17:40:32.974Z,1.58
2023-03-08T17:43:02.299Z,1.59
2023-03-08T17:45:29.202Z,1.58
2023-03-08T17:48:01.093Z,1.47
2023-03-08T17:50:29.789Z,1.42
2023-03-08T17:52:56.754Z,1.35
2023-03-08T17:55:23.983Z,1.50
2023-03-08T17:57:50.525Z,1.40
2023-03-08T18:00:17.155Z,1.14
2023-03-08T18:02:43.845Z,1.45
2023-03-08T18:05:10.950Z,1.50
2023-03-08T18:07:39.868Z,1.49
2023-03-08T18:10:10.791Z,1.46
2023-03-08T18:12:37.178Z,1.51
2023-03-08T18:15:04.341Z,1.47
2023-03-08T18:17:30.753Z,1.39
2023-03-08T18:19:57.164Z,1.43
2023-03-08T18:22:23.534Z,1.40
2023-03-08T18:24:50.008Z,1.45
2023-03-08T18:27:16.423Z,1.43
2023-03-08T18:29:42.902Z,1.57
2023-03-08T18:32:10.330Z,1.46
2023-03-08T18:34:38.543Z,1.50
2023-03-08T18:37:05.169Z,1.44
2023-03-08T18:39:31.614Z,1.46
2023-03-08T18:41:59.895Z,1.38
2023-03-08T18:44:26.382Z,1.43
2023-03-08T18:46:52.940Z,1.33
2023-03-08T18:49:19.592Z,1.30
2023-03-08T18:51:46.084Z,1.37
2023-03-08T18:54:14.289Z,1.39
2023-03-08T18:56:40.772Z,1.32
2023-03-08T18:59:07.872Z,1.32
2023-03-08T19:01:34.626Z,1.37
2023-03-08T19:04:06.942Z,1.24
2023-03-08T19:06:33.752Z,1.22
2023-03-08T19:09:02.030Z,1.15
2023-03-08T19:11:28.875Z,1.13
2023-03-08T19:13:55.383Z,1.27
2023-03-08T19:16:25.104Z,1.30
2023-03-08T19:18:57.120Z,1.32
2023-03-08T19:21:35.660Z,1.23
2023-03-08T19:24:02.575Z,1.22
2023-03-08T19:26:36.815Z,1.24
2023-03-08T19:29:17.293Z,1.22
2023-03-08T19:32:05.134Z,1.37
2023-03-08T19:34:40.270Z,1.40
2023-03-08T19:37:07.019Z,1.37
2023-03-08T19:39:35.792Z,1.46
2023-03-08T19:42:05.267Z,1.45
2023-03-08T19:44:32.700Z,1.56
2023-03-08T19:46:59.567Z,1.57
2023-03-08T19:49:29.382Z,1.61
2023-03-08T19:51:57.585Z,1.46
2023-03-08T19:54:25.773Z,1.33
2023-03-08T19:56:52.241Z,1.49
2023-03-08T19:59:18.807Z,1.47
2023-03-08T20:01:46.088Z,1.50
2023-03-08T20:04:12.589Z,1.42
2023-03-08T20:06:41.819Z,1.25
2023-03-08T20:09:09.798Z,1.42
2023-03-08T20:11:36.679Z,1.43
2023-03-08T20:14:03.396Z,1.42
2023-03-08T20:16:30.749Z,1.15
2023-03-08T20:18:57.689Z,1.28
2023-03-08T20:21:27.295Z,1.37
2023-03-08T20:23:57.437Z,1.54
2023-03-08T20:26:27.204Z,1.57
2023-03-08T20:28:54.014Z,1.42
2023-03-08T20:31:23.143Z,1.52
2023-03-08T20:33:49.919Z,1.54
2023-03-08T20:36:16.363Z,1.43
2023-03-08T20:38:42.750Z,1.51
2023-03-08T20:41:13.163Z,1.54
2023-03-08T20:43:39.660Z,1.57
2023-03-08T20:46:09.001Z,1.39
2023-03-08T20:48:36.877Z,1.44
2023-03-08T20:51:04.719Z,1.45
2023-03-08T20:53:32.002Z,1.32
2023-03-08T20:55:58.693Z,1.35
2023-03-08T20:58:25.840Z,1.35
2023-03-08T21:00:52.760Z,1.39
2023-03-08T21:03:19.312Z,1.25
2023-03-08T21:05:46.096Z,1.23
2023-03-08T21:08:12.502Z,1.23
2023-03-08T21:10:39.424Z,1.28
2023-03-08T21:13:12.862Z,1.12
2023-03-08T21:15:39.473Z,1.10
2023-03-08T21:18:06.089Z,1.01
2023-03-08T21:20:36.263Z,1.07
2023-03-08T21:23:02.630Z,0.96
2023-03-08T21:25:29.677Z,1.00
2023-03-08T21:27:56.086Z,0.96
2023-03-08T21:30:22.449Z,0.95
2023-03-08T21:32:50.213Z,1.03
2023-03-08T21:35:16.654Z,1.00
2023-03-08T21:37:43.146Z,1.12
2023-03-08T21:40:10.460Z,1.12
2023-03-08T21:42:36.932Z,1.08
2023-03-08T21:45:03.699Z,0.99
2023-03-08T21:47:30.230Z,0.90
2023-03-08T21:49:56.683Z,0.91
2023-03-08T21:52:23.046Z,0.92
2023-03-08T21:54:49.430Z,0.97
2023-03-08T21:57:15.824Z,1.04
2023-03-08T21:59:42.251Z,0.96
2023-03-08T22:02:10.203Z,0.98
2023-03-08T22:04:37.862Z,1.12
2023-03-08T22:07:04.236Z,1.10
2023-03-08T22:09:30.621Z,1.08
2023-03-08T22:11:58.426Z,0.99
2023-03-08T22:14:24.889Z,1.09
2023-03-08T22:16:51.267Z,1.18
2023-03-08T22:19:18.058Z,1.15
2023-03-08T22:21:44.518Z,1.21
2023-03-08T22:24:10.910Z,1.23
2023-03-08T22:26:37.290Z,1.23
2023-03-08T22:29:03.702Z,0.83
2023-03-08T22:31:30.442Z,0.95
2023-03-08T22:33:57.316Z,0.88
2023-03-08T22:36:23.727Z,0.99
2023-03-08T22:38:50.234Z,0.97
2023-03-08T22:41:19.645Z,0.88
2023-03-08T22:43:46.518Z,0.88
2023-03-08T22:46:16.294Z,1.00
2023-03-08T22:48:44.619Z,0.96
2023-03-08T22:51:11.837Z,0.97
2023-03-08T22:53:39.207Z,1.00
2023-03-08T22:56:06.307Z,1.01
2023-03-08T22:58:32.671Z,0.90
2023-03-08T23:00:59.287Z,0.94
2023-03-08T23:03:26.025Z,0.89
2023-03-08T23:05:52.467Z,0.93
2023-03-08T23:08:18.871Z,0.80
2023-03-08T23:10:45.251Z,0.80
2023-03-08T23:13:16.483Z,0.67
2023-03-08T23:15:48.895Z,0.84
2023-03-08T23:18:15.343Z,0.78
2023-03-08T23:20:41.767Z,0.82
2023-03-08T23:23:08.270Z,0.82
2023-03-08T23:25:34.741Z,0.60
2023-03-08T23:28:01.180Z,0.70
2023-03-08T23:30:27.619Z,0.88
2023-03-08T23:32:53.984Z,0.88
2023-03-08T23:35:20.436Z,0.91
2023-03-08T23:37:46.994Z,0.76
2023-03-08T23:40:14.101Z,0.78
2023-03-08T23:42:41.261Z,0.93
2023-03-08T23:45:08.996Z,0.89
2023-03-08T23:47:35.630Z,0.96
2023-03-08T23:50:02.068Z,0.98
2023-03-08T23:52:28.609Z,0.98
2023-03-08T23:54:55.164Z,0.95
2023-03-08T23:57:21.539Z,0.97
2023-03-08T23:59:47.954Z,1.01
